createdAt,value
2024-03-02T00:01:24.033Z,100271.13
2024-03-02T00:05:09.280Z,100266.23
2024-03-02T00:08:46.443Z,100263.28
2024-03-02T00:12:13.894Z,100259.55
2024-03-02T00:16:01.090Z,100256.80
2024-03-02T00:19:07.241Z,100262.34
2024-03-02T00:22:51.829Z,100257.23
2024-03-02T00:26:36.952Z,100262.78
2024-03-02T00:30:10.919Z,100255.37
2024-03-02T00:33:52.945Z,100259.78
2024-03-02T00:37:11.435Z,100258.04
2024-03-02T00:40:52.192Z,100256.61
2024-03-02T00:44:30.942Z,100261.34
2024-03-02T00:48:21.481Z,100259.55
2024-03-02T00:52:10.968Z,100250.31
2024-03-02T00:55:50.836Z,100246.76
2024-03-02T00:59:33.030Z,100248.93
2024-03-02T01:03:14.703Z,100251.45
2024-03-02T01:06:57.238Z,100245.20
2024-03-02T01:10:17.738Z,100239.54
2024-03-02T01:13:56.539Z,100238.85
2024-03-02T01:17:37.535Z,100241.27
2024-03-02T01:21:27.068Z,100237.59
2024-03-02T01:24:45.921Z,100237.02
2024-03-02T01:28:21.210Z,100233.46
2024-03-02T01:31:48.392Z,100232.90
2024-03-02T01:34:48.807Z,100227.44
2024-03-02T01:38:17.008Z,100228.64
2024-03-02T01:41:34.078Z,100227.90
2024-03-02T01:44:51.824Z,100224.77
2024-03-02T01:48:04.222Z,100218.98
2024-03-02T01:51:35.799Z,100215.48
2024-03-02T01:55:18.630Z,100211.81
2024-03-02T01:58:49.455Z,100212.02
2024-03-02T02:02:17.115Z,100210.18
2024-03-02T02:05:49.144Z,100209.05
2024-03-02T02:09:06.976Z,100216.39
2024-03-02T02:12:35.148Z,100215.09
2024-03-02T02:16:17.292Z,100221.27
2024-03-02T02:19:43.780Z,100213.83
2024-03-02T02:23:13.600Z,100208.45
2024-03-02T02:26:28.402Z,100205.05
2024-03-02T02:30:08.941Z,100206.73
2024-03-02T02:33:36.253Z,100212.48
2024-03-02T02:37:11.191Z,100214.67
2024-03-02T02:40:39.561Z,100213.98
2024-03-02T02:44:12.746Z,100214.09
2024-03-02T02:47:51.978Z,100213.23
2024-03-02T02:51:19.991Z,100209.65
2024-03-02T02:54:38.021Z,100208.22
2024-03-02T02:58:01.523Z,100203.41
2024-03-02T03:01:41.396Z,100197.02
2024-03-02T03:05:02.727Z,100203.82
2024-03-02T03:08:28.523Z,100216.04
2024-03-02T03:11:53.793Z,100217.08
2024-03-02T03:15:13.291Z,100213.30
2024-03-02T03:18:38.122Z,100206.77
2024-03-02T03:22:11.420Z,100205.20
2024-03-02T03:25:28.792Z,100202.20
2024-03-02T03:28:48.189Z,100204.59
2024-03-02T03:32:27.477Z,100204.52
2024-03-02T03:36:02.350Z,100200.09
2024-03-02T03:39:15.531Z,100201.29
2024-03-02T03:42:42.261Z,100195.75
2024-03-02T03:46:16.097Z,100193.07
2024-03-02T03:50:06.032Z,100193.18
2024-03-02T03:53:26.979Z,100192.38
2024-03-02T03:57:16.350Z,100187.98
2024-03-02T04:00:28.668Z,100183.27
2024-03-02T04:04:03.284Z,100184.88
2024-03-02T04:07:45.197Z,100187.55
2024-03-02T04:11:25.476Z,100188.08
2024-03-02T04:14:47.766Z,100194.96
2024-03-02T04:18:08.295Z,100193.39
2024-03-02T04:21:43.250Z,100190.73
2024-03-02T04:25:25.118Z,100193.88
2024-03-02T04:29:06.489Z,100201.70
2024-03-02T04:32:32.718Z,100207.38
2024-03-02T04:35:38.965Z,100210.14
2024-03-02T04:39:03.554Z,100206.62
2024-03-02T04:42:25.997Z,100212.63
2024-03-02T04:46:00.420Z,100213.73
2024-03-02T04:49:30.066Z,100223.05
2024-03-02T04:52:56.388Z,100223.03
2024-03-02T04:56:20.155Z,100229.26
2024-03-02T04:59:43.056Z,100227.36
2024-03-02T05:03:03.661Z,100230.03
2024-03-02T05:05:45.786Z,100229.48
2024-03-02T05:09:10.914Z,100234.38
2024-03-02T05:12:11.298Z,100228.66
2024-03-02T05:14:43.665Z,100228.55
2024-03-02T05:18:00.862Z,100227.33
2024-03-02T05:20:45.116Z,100233.64
2024-03-02T05:23:53.888Z,100234.13
2024-03-02T05:27:02.807Z,100232.29
2024-03-02T05:30:47.464Z,100234.29
2024-03-02T05:34:18.043Z,100243.05
2024-03-02T05:37:50.831Z,100238.68
2024-03-02T05:41:19.536Z,100243.86
2024-03-02T05:44:17.509Z,100240.95
2024-03-02T05:47:40.809Z,100240.27
2024-03-02T05:51:02.358Z,100240.84
2024-03-02T05:54:25.765Z,100244.86
2024-03-02T05:58:02.909Z,100238.64
2024-03-02T06:01:31.027Z,100241.84
2024-03-02T06:04:48.774Z,100247.81
2024-03-02T06:07:59.525Z,100258.20
2024-03-02T06:11:00.615Z,100266.45
2024-03-02T06:14:09.166Z,100268.05
2024-03-02T06:17:51.383Z,100262.63
2024-03-02T06:21:40.843Z,100274.86
2024-03-02T06:25:22.389Z,100278.13
2024-03-02T06:28:49.879Z,100283.77
2024-03-02T06:32:28.168Z,100280.77
2024-03-02T06:36:03.136Z,100282.39
2024-03-02T06:39:35.293Z,100281.10
2024-03-02T06:43:08.870Z,100275.52
2024-03-02T06:46:28.073Z,100272.88
2024-03-02T06:49:55.027Z,100270.31
2024-03-02T06:53:24.053Z,100270.88
2024-03-02T06:56:40.316Z,100272.03
2024-03-02T07:00:28.683Z,100268.78
2024-03-02T07:03:54.688Z,100273.70
2024-03-02T07:11:28.473Z,100286.00
2024-03-02T07:14:17.061Z,100292.36
2024-03-02T07:17:24.953Z,100296.77
2024-03-02T07:20:53.451Z,100295.63
2024-03-02T07:24:19.816Z,100302.17
2024-03-02T07:27:50.075Z,100300.05
2024-03-02T07:31:32.455Z,100294.98
2024-03-02T07:34:44.355Z,100299.91
2024-03-02T07:38:15.988Z,100300.86
2024-03-02T07:41:45.889Z,100296.21
2024-03-02T07:44:46.266Z,100298.98
2024-03-02T07:48:08.533Z,100305.80
2024-03-02T07:51:58.123Z,100314.32
2024-03-02T07:54:56.992Z,100312.86
2024-03-02T07:57:34.044Z,100311.48
2024-03-02T08:00:23.082Z,100309.52
2024-03-02T08:03:44.227Z,100313.75
2024-03-02T08:06:34.902Z,100313.39
2024-03-02T08:09:42.080Z,100315.70
2024-03-02T08:13:01.078Z,100315.94
2024-03-02T08:15:53.872Z,100314.21
2024-03-02T08:18:42.453Z,100311.08
2024-03-02T08:21:35.850Z,100308.38
2024-03-02T08:24:44.893Z,100306.72
2024-03-02T08:28:02.547Z,100315.73
2024-03-02T08:31:49.683Z,100321.27
2024-03-02T08:34:21.102Z,100318.71
2024-03-02T08:37:51.995Z,100319.79
2024-03-02T08:41:20.320Z,100319.52
2024-03-02T08:44:58.233Z,100312.02
2024-03-02T08:48:26.388Z,100313.63
2024-03-02T08:52:15.039Z,100320.10
2024-03-02T08:55:18.499Z,100320.73
2024-03-02T08:58:11.323Z,100318.16
2024-03-02T09:00:53.514Z,100320.46
2024-03-02T09:04:35.305Z,100316.42
2024-03-02T09:07:25.112Z,100315.94
2024-03-02T09:10:40.197Z,100311.10
2024-03-02T09:13:34.609Z,100310.46
2024-03-02T09:16:54.329Z,100312.96
2024-03-02T09:19:53.495Z,100312.04
2024-03-02T09:22:27.100Z,100310.34
2024-03-02T09:25:05.749Z,100304.96
2024-03-02T09:28:00.892Z,100303.55
2024-03-02T09:31:21.716Z,100305.68
2024-03-02T09:34:44.721Z,100308.14
2024-03-02T09:37:54.022Z,100311.34
2024-03-02T09:40:47.874Z,100314.11
2024-03-02T09:44:01.695Z,100317.27
2024-03-02T09:46:40.605Z,100314.02
2024-03-02T09:49:24.733Z,100307.33
2024-03-02T09:52:54.685Z,100302.57
2024-03-02T09:56:26.949Z,100305.98
2024-03-02T09:59:26.123Z,100312.55
2024-03-02T10:02:26.769Z,100314.63
2024-03-02T10:05:30.217Z,100316.90
2024-03-02T10:09:16.179Z,100320.45
2024-03-02T10:11:55.422Z,100319.76
2024-03-02T10:15:15.953Z,100318.81
2024-03-02T10:17:53.177Z,100317.41
2024-03-02T10:20:25.949Z,100316.91
2024-03-02T10:23:37.015Z,100311.67
2024-03-02T10:26:30.266Z,100308.82
2024-03-02T10:29:11.513Z,100301.67
2024-03-02T10:31:48.385Z,100308.31
2024-03-02T10:34:22.886Z,100305.61
2024-03-02T10:37:06.510Z,100306.77
2024-03-02T10:39:44.061Z,100298.29
2024-03-02T10:42:44.370Z,100296.89
2024-03-02T10:45:53.599Z,100291.90
2024-03-02T10:54:49.726Z,100293.85
2024-03-02T10:59:10.810Z,100296.55
2024-03-02T11:03:26.782Z,100292.34
2024-03-02T11:07:51.241Z,100292.98
2024-03-02T11:12:20.058Z,100289.89
2024-03-02T11:16:49.543Z,100283.48
2024-03-02T11:20:59.232Z,100285.19
2024-03-02T11:25:29.514Z,100288.16
2024-03-02T11:30:18.593Z,100283.44
2024-03-02T11:34:44.461Z,100283.02
2024-03-02T11:39:00.515Z,100285.77
2024-03-02T11:43:22.162Z,100284.71
2024-03-02T11:48:04.063Z,100284.77
2024-03-02T11:52:34.203Z,100284.24
2024-03-02T11:57:05.353Z,100282.45
2024-03-02T12:01:37.381Z,100282.52
2024-03-02T12:05:57.724Z,100283.25
2024-03-02T12:10:12.083Z,100285.91
2024-03-02T12:14:41.800Z,100284.98
2024-03-02T12:19:15.060Z,100281.63
2024-03-02T12:23:26.954Z,100278.52
2024-03-02T12:27:54.712Z,100280.63
2024-03-02T12:32:25.460Z,100280.73
2024-03-02T12:36:58.072Z,100279.77
2024-03-02T12:41:11.168Z,100280.34
2024-03-02T12:45:17.860Z,100284.27
2024-03-02T12:49:48.424Z,100280.31
2024-03-02T12:54:18.622Z,100283.66
2024-03-02T12:58:49.784Z,100283.34
2024-03-02T13:03:19.473Z,100278.35
2024-03-02T13:07:49.176Z,100273.13
2024-03-02T13:12:21.272Z,100270.94
2024-03-02T13:16:44.422Z,100272.44
2024-03-02T13:21:06.165Z,100273.45
2024-03-02T13:25:40.800Z,100274.96
2024-03-02T13:30:14.896Z,100272.83
2024-03-02T13:39:19.750Z,100280.85
2024-03-02T13:43:51.070Z,100279.06
2024-03-02T13:48:30.332Z,100279.88
2024-03-02T13:52:55.166Z,100275.48
2024-03-02T13:56:44.780Z,100275.48
2024-03-02T13:59:24.903Z,100276.83
2024-03-02T14:01:56.932Z,100276.80
2024-03-02T14:04:50.885Z,100274.83
2024-03-02T14:07:24.697Z,100270.29
2024-03-02T14:10:24.678Z,100272.67
2024-03-02T14:13:09.759Z,100273.05
2024-03-02T14:15:42.259Z,100272.66
2024-03-02T14:18:14.072Z,100267.42
2024-03-02T14:20:45.658Z,100267.46
2024-03-02T14:23:18.838Z,100269.52
2024-03-02T14:25:47.480Z,100271.68
2024-03-02T14:28:43.000Z,100268.63
2024-03-02T14:31:08.017Z,100269.01
2024-03-02T14:33:47.537Z,100268.65
2024-03-02T14:36:19.621Z,100271.67
2024-03-02T14:39:01.267Z,100275.78
2024-03-02T14:41:42.482Z,100275.81
2024-03-02T14:44:35.482Z,100273.23
2024-03-02T14:47:12.138Z,100275.50
2024-03-02T14:49:45.133Z,100271.52
2024-03-02T14:52:25.181Z,100272.52
2024-03-02T14:54:58.336Z,100271.14
2024-03-02T14:57:42.308Z,100268.31
2024-03-02T15:00:21.842Z,100270.48
2024-03-02T15:03:19.977Z,100267.90
2024-03-02T15:05:55.066Z,100269.71
2024-03-02T15:08:53.855Z,100269.27
2024-03-02T15:12:13.748Z,100266.95
2024-03-02T15:14:51.532Z,100266.80
2024-03-02T15:17:53.315Z,100263.89
2024-03-02T15:20:38.850Z,100264.70
2024-03-02T15:23:33.070Z,100263.11
2024-03-02T15:26:29.895Z,100262.69
2024-03-02T15:29:30.094Z,100261.83
2024-03-02T15:32:45.935Z,100262.15
2024-03-02T15:35:40.324Z,100262.95
2024-03-02T15:39:08.877Z,100259.60
2024-03-02T15:42:43.790Z,100266.83
2024-03-02T15:46:06.899Z,100266.64
2024-03-02T15:49:41.548Z,100268.59
2024-03-02T15:52:37.112Z,100266.75
2024-03-02T15:55:18.302Z,100267.64
2024-03-02T15:58:52.842Z,100267.90
2024-03-02T16:02:30.960Z,100265.53
2024-03-02T16:05:21.702Z,100266.55
2024-03-02T16:08:36.269Z,100262.59
2024-03-02T16:11:24.037Z,100262.69
2024-03-02T16:14:17.581Z,100267.84
2024-03-02T16:18:04.860Z,100266.88
2024-03-02T16:21:18.056Z,100269.34
2024-03-02T16:24:21.838Z,100268.34
2024-03-02T16:27:16.443Z,100268.63
2024-03-02T16:30:21.260Z,100272.96
2024-03-02T16:33:25.288Z,100272.23
2024-03-02T16:36:28.350Z,100273.14
2024-03-02T16:39:05.275Z,100273.73
2024-03-02T16:42:17.944Z,100277.81
2024-03-02T16:45:30.028Z,100278.12
2024-03-02T16:48:17.095Z,100277.43
2024-03-02T16:51:56.719Z,100279.38
2024-03-02T16:55:08.851Z,100280.52
2024-03-02T16:58:06.937Z,100287.15
2024-03-02T17:01:08.866Z,100289.48
2024-03-02T17:04:41.366Z,100288.17
2024-03-02T17:08:02.639Z,100285.61
2024-03-02T17:11:11.325Z,100288.42
2024-03-02T17:14:48.309Z,100285.34
2024-03-02T17:18:28.278Z,100283.13
2024-03-02T17:22:01.917Z,100286.66
2024-03-02T17:25:34.144Z,100288.42
2024-03-02T17:28:51.000Z,100283.92
2024-03-02T17:32:39.942Z,100284.48
2024-03-02T17:36:00.302Z,100289.98
2024-03-02T17:39:18.608Z,100284.09
2024-03-02T17:43:01.046Z,100282.36
2024-03-02T17:46:08.478Z,100282.81
2024-03-02T17:48:56.092Z,100289.93
2024-03-02T17:51:54.953Z,100286.98
2024-03-02T17:54:49.384Z,100288.15
2024-03-02T17:57:51.647Z,100286.59
2024-03-02T18:00:42.732Z,100288.13
2024-03-02T18:03:17.430Z,100285.66
2024-03-02T18:05:52.680Z,100289.03
2024-03-02T18:08:23.406Z,100294.69
2024-03-02T18:11:09.003Z,100294.75
2024-03-02T18:14:30.000Z,100298.64
2024-03-02T18:18:08.669Z,100299.26
2024-03-02T18:21:50.342Z,100303.10
2024-03-02T18:25:40.949Z,100300.99
2024-03-02T18:29:23.718Z,100302.73
2024-03-02T18:32:40.719Z,100302.98
2024-03-02T18:36:01.218Z,100305.41
2024-03-02T18:39:29.180Z,100307.21
2024-03-02T18:43:10.022Z,100307.99
2024-03-02T18:46:50.218Z,100309.99
2024-03-02T18:50:09.556Z,100308.83
2024-03-02T18:53:39.077Z,100312.45
2024-03-02T18:57:20.276Z,100319.10
2024-03-02T19:00:38.724Z,100317.23
2024-03-02T19:03:21.554Z,100316.95
2024-03-02T19:06:39.453Z,100316.02
2024-03-02T19:10:15.067Z,100318.33
2024-03-02T19:13:47.650Z,100323.31
2024-03-02T19:16:38.708Z,100319.23
2024-03-02T19:19:25.090Z,100317.80
2024-03-02T19:22:19.825Z,100320.36
2024-03-02T19:25:16.067Z,100320.27
2024-03-02T19:28:19.506Z,100319.01
2024-03-02T19:31:28.143Z,100315.98
2024-03-02T19:35:16.409Z,100316.76
2024-03-02T19:38:14.182Z,100313.96
2024-03-02T19:41:24.082Z,100318.95
2024-03-02T19:44:42.164Z,100314.17
2024-03-02T19:47:37.564Z,100317.84
2024-03-02T19:50:56.419Z,100315.71
2024-03-02T19:53:54.065Z,100317.17
2024-03-02T19:57:34.331Z,100313.20
2024-03-02T20:00:29.129Z,100319.98
2024-03-02T20:04:01.320Z,100316.65
2024-03-02T20:06:40.184Z,100316.55
2024-03-02T20:09:42.378Z,100312.90
2024-03-02T20:13:10.791Z,100314.77
2024-03-02T20:16:05.964Z,100311.14
2024-03-02T20:19:27.069Z,100310.23
2024-03-02T20:22:46.212Z,100314.36
2024-03-02T20:26:12.932Z,100314.98
2024-03-02T20:29:52.654Z,100314.23
2024-03-02T20:32:54.938Z,100313.66
2024-03-02T20:36:04.328Z,100318.80
2024-03-02T20:39:19.014Z,100322.84
2024-03-02T20:43:02.124Z,100321.81
2024-03-02T20:46:10.054Z,100322.27
2024-03-02T20:49:50.874Z,100321.78
2024-03-02T20:53:32.100Z,100320.27
2024-03-02T20:57:22.971Z,100327.85
2024-03-02T21:00:49.694Z,100322.09
2024-03-02T21:04:31.988Z,100328.04
2024-03-02T21:07:26.034Z,100326.95
2024-03-02T21:10:53.385Z,100330.39
2024-03-02T21:14:40.664Z,100337.95
2024-03-02T21:17:28.347Z,100343.80
2024-03-02T21:20:55.654Z,100344.86
2024-03-02T21:24:31.251Z,100345.20
2024-03-02T21:28:15.831Z,100347.12
2024-03-02T21:31:56.413Z,100349.57
2024-03-02T21:35:20.275Z,100347.67
2024-03-02T21:38:31.109Z,100350.36
2024-03-02T21:42:03.099Z,100344.84
2024-03-02T21:45:35.766Z,100343.55
2024-03-02T21:49:26.391Z,100345.81
2024-03-02T21:52:54.861Z,100347.69
2024-03-02T21:56:03.523Z,100344.17
2024-03-02T21:59:49.506Z,100344.84
2024-03-02T22:04:43.393Z,100343.39
2024-03-02T22:07:49.525Z,100342.98
2024-03-02T22:11:24.836Z,100343.05
2024-03-02T22:15:19.867Z,100343.26
2024-03-02T22:19:10.845Z,100340.67
2024-03-02T22:22:55.231Z,100340.15
2024-03-02T22:26:46.042Z,100334.55
2024-03-02T22:30:28.384Z,100331.81
2024-03-02T22:34:05.584Z,100333.42
2024-03-02T22:38:45.237Z,100339.60
2024-03-02T22:42:26.821Z,100337.02
2024-03-02T22:46:16.758Z,100339.33
2024-03-02T22:50:06.492Z,100329.73
2024-03-02T22:53:39.257Z,100329.55
2024-03-02T22:57:29.666Z,100337.48
2024-03-02T23:01:10.149Z,100333.56
2024-03-02T23:04:34.873Z,100327.76
2024-03-02T23:08:09.176Z,100325.43
2024-03-02T23:11:56.412Z,100328.09
2024-03-02T23:15:39.535Z,100329.95
2024-03-02T23:19:29.453Z,100327.00
2024-03-02T23:22:44.610Z,100322.89
2024-03-02T23:26:19.148Z,100323.27
2024-03-02T23:30:08.624Z,100323.35
2024-03-02T23:33:50.565Z,100320.77
2024-03-02T23:37:30.154Z,100320.27
2024-03-02T23:41:04.180Z,100317.46
2024-03-02T23:44:39.792Z,100313.64
2024-03-02T23:47:52.659Z,100314.48
2024-03-02T23:51:45.856Z,100312.14
2024-03-02T23:55:00.836Z,100314.65
2024-03-02T23:58:11.542Z,100309.77
